Fort Pierce, FL

1:03 AM EDT on August 24, 2016 (GMT -0400)
Saint Lucie County International | | Change Station

Elev 23 ft 27.50 °N, 80.38 °W | Updated 10 minutes ago

Clear
Clear
82 °F
Feels Like 92 °F
N
4
Wind Variable Wind from NE

Today
High -- | Low -- °F
--% Chance of Precip.
Yesterday
High -- | Low -- °F
Precip. -- in
Pressure 30.09 in
Visibility 10.0 miles
Clouds Clear
Heat Index 92 °F
Dew Point 79 °F
Humidity 90%
Rainfall 0.00 in
Snow Depth Not available.
6:56 AM 7:49 PM
Waning Gibbous, 61% visible
METAR KFPR 240453Z AUTO 04003KT 10SM CLR 28/26 A3010 RMK AO2 SLP190 T02780261 403280228
Pressure 30.09 in
Visibility 10.0 miles
Clouds Clear
Heat Index 92 °F
Dew Point 79 °F
Humidity 90%
Rainfall 0.00 in
Snow Depth Not available.
6:56 AM 7:49 PM
Waning Gibbous, 61% visible
METAR KFPR 240453Z AUTO 04003KT 10SM CLR 28/26 A3010 RMK AO2 SLP190 T02780261 403280228

10-Day Weather Forecast

Almanac

Astronomy

Aug. 24, 2016 Rise Set
Actual Time
Civil Twilight
Nautical Twilight
Astronomical Twilight
Moon
Length of Visible Light
Length of Day
Tomorrow will be .
, % of the Moon is Illuminated

Today's Extremes

State Highs State Lows

Community

WunderPhotos

Upload Photos

1,934,554 photos uploaded!

WunderBlog® & News

Nearby

Air Quality

  Air Quality AQ Index Pollutant
Not available.

Snow Depth

Station Depth Elevation

Earthquake Activity

City Distance Mag. Time & Date
Minimum magnitude displayed is 2.5.

Coastal Water Temperatures

Place Temperature

Stations

Nearby Weather Stations

Station Location Temp. Windchill Dew Point Humidity Wind Precip. Elev Updated Type
                   

Watches & Warnings

There are currently no watches in effect.